Time;durP1;ratioP1;P1;durP2;ratioP2;P2;SDS_P1;SDS_P2;PMS_P1;PMS_P2;Temp;Humidity;BMP_temperature;BMP_pressure;BME280_temperature;BME280_humidity;BME280_pressure;Samples;Min_cycle;Max_cycle;Signal;HPM_P1;HPM_P2
2021/09/28 00:01:44;;;;;;;5.78;1.73;;;;;;;28.96;25.21;98446.50;5090072;28;20073;-84
2021/09/28 00:04:10;;;;;;;1.98;1.25;;;;;;;28.59;25.92;98445.38;5081317;28;20036;-85
2021/09/28 00:06:36;;;;;;;3.30;1.30;;;;;;;27.73;26.99;98454.97;5088903;28;20021;-84
2021/09/28 00:09:03;;;;;;;3.10;1.13;;;;;;;28.34;25.96;98451.84;5091860;28;20032;-84
2021/09/28 00:11:29;;;;;;;3.22;1.52;;;;;;;28.88;25.42;98451.63;5090750;28;20111;-84
2021/09/28 00:13:56;;;;;;;1.88;0.93;;;;;;;29.06;24.84;98463.06;5091707;28;20103;-84
2021/09/28 00:16:22;;;;;;;1.45;1.27;;;;;;;28.79;25.27;98454.34;5075503;28;20399;-84
2021/09/28 00:18:48;;;;;;;2.08;1.05;;;;;;;28.65;24.89;98454.84;5094832;28;20032;-84
2021/09/28 00:21:14;;;;;;;1.42;0.98;;;;;;;28.57;25.06;98454.28;5095669;28;20054;-84
2021/09/28 00:23:40;;;;;;;3.08;1.38;;;;;;;28.80;24.79;98455.91;5094920;28;20111;-84
2021/09/28 00:26:06;;;;;;;2.13;1.17;;;;;;;28.77;25.01;98451.22;5112816;27;20440;-84
2021/09/28 00:28:32;;;;;;;4.82;1.60;;;;;;;28.25;25.73;98456.59;5095296;28;20035;-84
2021/09/28 00:30:58;;;;;;;2.47;1.20;;;;;;;28.16;26.04;98464.97;5079266;28;20063;-85
2021/09/28 00:33:25;;;;;;;3.17;1.17;;;;;;;28.27;25.74;98456.91;5093152;28;20040;-84
2021/09/28 00:35:51;;;;;;;3.60;1.08;;;;;;;28.69;25.04;98455.50;5094532;28;20077;-84
2021/09/28 00:38:18;;;;;;;2.20;1.23;;;;;;;28.63;25.05;98458.16;5087495;28;20060;-84
2021/09/28 00:40:44;;;;;;;2.25;1.23;;;;;;;28.68;24.71;98453.94;5094876;28;20020;-84
2021/09/28 00:43:10;;;;;;;1.67;0.95;;;;;;;28.77;24.70;98456.06;5089947;28;20032;-84
2021/09/28 00:45:36;;;;;;;2.00;1.02;;;;;;;29.00;24.16;98453.59;5096042;28;20039;-84
2021/09/28 00:48:02;;;;;;;2.05;1.10;;;;;;;29.15;23.96;98454.66;5091532;28;20473;-84
2021/09/28 00:50:28;;;;;;;0.98;0.80;;;;;;;29.22;23.72;98450.81;5086178;28;20016;-84
2021/09/28 00:52:55;;;;;;;1.23;1.10;;;;;;;29.08;23.79;98462.63;5096240;28;20044;-84
2021/09/28 00:55:27;;;;;;;1.70;0.93;;;;;;;28.79;24.32;98460.00;5092741;28;20395;-84
2021/09/28 00:57:56;;;;;;;2.08;1.30;;;;;;;28.45;24.70;98459.97;5095301;28;20467;-84
2021/09/28 01:00:23;;;;;;;1.90;1.02;;;;;;;28.47;24.34;98454.66;5092894;28;20395;-85
2021/09/28 01:02:50;;;;;;;3.40;1.27;;;;;;;28.19;24.68;98464.84;5094709;28;20094;-84
2021/09/28 01:05:16;;;;;;;4.63;0.95;;;;;;;28.37;24.23;98467.09;5093021;28;20043;-84
2021/09/28 01:07:42;;;;;;;1.73;0.88;;;;;;;28.64;24.12;98456.09;5093437;28;20471;-84
2021/09/28 01:10:08;;;;;;;1.75;0.85;;;;;;;28.77;23.80;98459.69;5094472;28;20035;-84
2021/09/28 01:12:34;;;;;;;1.45;1.00;;;;;;;29.03;23.62;98464.00;5098774;28;20475;-84
2021/09/28 01:15:01;;;;;;;1.85;1.25;;;;;;;28.86;23.55;98459.75;5094473;28;20115;-84
2021/09/28 01:17:27;;;;;;;3.03;1.05;;;;;;;29.06;23.35;98465.09;5093647;28;20036;-84
2021/09/28 01:19:53;;;;;;;2.80;1.05;;;;;;;29.22;23.11;98462.13;5082919;28;20027;-84
2021/09/28 01:22:19;;;;;;;2.05;0.80;;;;;;;29.23;23.28;98458.03;5095943;28;20036;-84
2021/09/28 01:24:47;;;;;;;1.73;1.10;;;;;;;29.35;22.79;98463.66;5097495;28;20118;-84
2021/09/28 01:27:14;;;;;;;1.70;0.80;;;;;;;29.54;22.43;98464.56;5097410;28;20032;-84
2021/09/28 01:29:41;;;;;;;1.77;0.90;;;;;;;29.69;22.58;98473.25;5097310;28;20024;-84
2021/09/28 01:32:07;;;;;;;2.47;0.95;;;;;;;29.61;22.25;98471.97;5092903;28;20028;-84
2021/09/28 01:34:34;;;;;;;2.50;0.95;;;;;;;29.64;22.33;98471.06;5093509;28;20024;-84
2021/09/28 01:37:00;;;;;;;1.48;1.00;;;;;;;29.66;22.46;98472.19;5090338;28;20035;-84
2021/09/28 01:39:26;;;;;;;1.85;0.90;;;;;;;29.36;22.43;98473.69;5086354;28;20024;-84
2021/09/28 01:41:53;;;;;;;2.58;0.90;;;;;;;29.45;22.05;98467.34;5093090;28;20032;-84
2021/09/28 01:44:21;;;;;;;2.97;1.40;;;;;;;29.29;22.13;98476.03;5093321;28;20027;-84
2021/09/28 01:46:49;;;;;;;1.42;0.80;;;;;;;29.36;22.20;98476.53;5094248;28;20165;-84
2021/09/28 01:49:17;;;;;;;2.80;0.80;;;;;;;29.53;21.99;98479.16;5075450;28;20024;-84
2021/09/28 01:51:44;;;;;;;1.70;0.90;;;;;;;29.59;21.88;98480.16;5094752;28;20454;-84
2021/09/28 01:54:11;;;;;;;2.90;0.88;;;;;;;29.43;21.94;98481.13;5091840;28;20024;-84
2021/09/28 01:56:37;;;;;;;2.03;0.90;;;;;;;29.36;22.51;98475.72;5100696;28;20040;-84
2021/09/28 01:59:05;;;;;;;1.50;0.80;;;;;;;29.28;22.36;98478.06;5094719;28;20438;-84
2021/09/28 02:01:32;;;;;;;1.83;0.98;;;;;;;29.32;22.56;98483.56;5093001;28;20398;-84
2021/09/28 02:03:58;;;;;;;1.00;0.77;;;;;;;29.13;22.63;98485.44;5093236;28;20035;-84
2021/09/28 02:06:26;;;;;;;1.65;0.93;;;;;;;29.13;22.31;98484.63;5093532;28;20235;-84
2021/09/28 02:08:52;;;;;;;1.77;0.77;;;;;;;28.86;22.37;98482.38;5073276;28;20036;-84
2021/09/28 02:11:19;;;;;;;0.73;0.73;;;;;;;28.79;22.67;98487.47;5093783;28;20024;-84
2021/09/28 02:13:45;;;;;;;1.00;0.70;;;;;;;28.84;22.57;98495.38;5093187;28;20047;-84
2021/09/28 02:16:11;;;;;;;2.20;0.60;;;;;;;28.49;22.85;98495.31;5093303;28;20107;-84
2021/09/28 02:18:38;;;;;;;0.82;0.77;;;;;;;28.59;22.75;98494.19;5088544;28;20028;-84
2021/09/28 02:21:04;;;;;;;3.05;0.80;;;;;;;28.72;22.63;98488.53;5088784;28;20024;-84
2021/09/28 02:23:30;;;;;;;2.17;0.70;;;;;;;28.88;22.38;98485.53;5110494;27;20507;-83
2021/09/28 02:25:57;;;;;;;1.02;0.70;;;;;;;28.98;22.01;98489.22;5083502;28;20032;-84
2021/09/28 02:28:23;;;;;;;2.17;0.70;;;;;;;29.11;22.18;98487.94;5092965;28;20055;-84
2021/09/28 02:30:49;;;;;;;1.35;0.70;;;;;;;28.82;22.06;98495.06;5092727;28;20085;-84
2021/09/28 02:33:15;;;;;;;2.25;0.70;;;;;;;28.75;22.76;98488.38;5110906;27;20024;-84
2021/09/28 02:35:43;;;;;;;0.50;0.50;;;;;;;28.71;22.72;98475.63;5090918;28;20032;-84
2021/09/28 02:38:09;;;;;;;1.00;0.80;;;;;;;28.66;23.21;98491.13;5092754;28;20098;-84
2021/09/28 02:40:36;;;;;;;2.80;0.70;;;;;;;28.70;22.85;98491.03;5090712;28;20024;-84
2021/09/28 02:43:02;;;;;;;1.30;0.65;;;;;;;28.88;22.58;98490.38;5091926;28;20080;-83
2021/09/28 02:45:28;;;;;;;3.70;0.90;;;;;;;28.80;22.53;98484.19;5078076;28;20123;-84
2021/09/28 02:47:54;;;;;;;1.65;0.77;;;;;;;28.20;23.57;98491.84;5093252;28;20039;-84
2021/09/28 02:50:20;;;;;;;1.17;0.70;;;;;;;28.14;23.66;98490.84;5092610;28;20035;-84
2021/09/28 02:52:46;;;;;;;1.05;0.70;;;;;;;28.22;23.54;98495.00;5093201;28;20043;-84
2021/09/28 02:55:12;;;;;;;0.90;0.80;;;;;;;28.48;23.17;98490.13;5092848;28;20044;-84
2021/09/28 02:57:39;;;;;;;2.38;0.70;;;;;;;28.68;23.08;98480.16;5092097;28;20492;-83
2021/09/28 03:00:08;;;;;;;0.68;0.60;;;;;;;28.29;23.29;98488.31;5090067;28;20063;-84
2021/09/28 03:02:34;;;;;;;1.85;1.08;;;;;;;28.06;24.29;98490.25;5092033;28;20079;-84
2021/09/28 03:05:00;;;;;;;1.25;0.98;;;;;;;28.00;24.40;98489.25;5092292;28;20111;-84
2021/09/28 03:07:26;;;;;;;1.90;0.85;;;;;;;28.00;24.11;98492.09;5092477;28;20054;-84
2021/09/28 03:09:52;;;;;;;1.80;1.30;;;;;;;27.68;24.95;98491.44;5092420;28;20106;-84
2021/09/28 03:12:18;;;;;;;3.88;2.08;;;;;;;25.95;27.63;98502.34;5092085;28;20032;-84
2021/09/28 03:14:44;;;;;;;3.78;1.98;;;;;;;26.00;27.75;98501.03;5090385;28;20034;-84
2021/09/28 03:17:10;;;;;;;3.22;1.88;;;;;;;26.89;26.67;98500.50;5091841;28;20032;-84
2021/09/28 03:19:37;;;;;;;2.65;1.20;;;;;;;27.48;25.72;98497.25;5091213;28;20391;-83
2021/09/28 03:22:03;;;;;;;2.67;1.77;;;;;;;27.83;25.31;98504.66;5091782;28;20082;-84
2021/09/28 03:24:29;;;;;;;3.53;2.03;;;;;;;27.60;25.50;98510.59;5099359;28;20484;-84
2021/09/28 03:26:55;;;;;;;3.65;2.40;;;;;;;26.99;26.49;98505.06;5094448;28;20399;-84
2021/09/28 03:29:22;;;;;;;4.55;1.95;;;;;;;26.75;27.16;98509.31;5094722;28;20058;-84
2021/09/28 03:31:48;;;;;;;3.22;1.83;;;;;;;27.06;26.53;98504.06;5101976;28;20039;-84
2021/09/28 03:34:14;;;;;;;6.35;2.88;;;;;;;26.60;27.20;98506.06;5094691;28;20043;-84
2021/09/28 03:36:40;;;;;;;3.05;2.20;;;;;;;26.65;27.30;98511.13;5091802;28;20028;-84
2021/09/28 03:39:06;;;;;;;5.30;2.45;;;;;;;27.04;26.86;98507.34;5090127;28;20495;-84
2021/09/28 03:41:32;;;;;;;3.95;2.50;;;;;;;27.03;27.00;98504.94;5091800;28;20464;-84
2021/09/28 03:43:58;;;;;;;2.03;1.60;;;;;;;27.39;26.46;98509.19;5091527;28;20119;-83
2021/09/28 03:46:24;;;;;;;3.88;2.67;;;;;;;26.97;27.11;98506.72;5092392;28;20029;-84
2021/09/28 03:48:50;;;;;;;3.75;2.17;;;;;;;27.77;25.91;98500.81;5091792;28;20074;-84
2021/09/28 03:51:16;;;;;;;5.45;2.95;;;;;;;27.97;25.55;98507.06;5091523;28;20430;-84
2021/09/28 03:53:42;;;;;;;6.60;2.55;;;;;;;28.12;25.46;98507.44;5067146;28;20838;-84
2021/09/28 03:56:09;;;;;;;3.88;3.22;;;;;;;26.88;27.03;98504.56;5091553;28;20044;-84
2021/09/28 03:58:35;;;;;;;3.67;2.60;;;;;;;27.14;26.97;98511.88;5071999;28;20096;-84
2021/09/28 04:01:01;;;;;;;3.63;2.72;;;;;;;27.19;26.92;98502.88;5090573;28;20024;-84
2021/09/28 04:03:27;;;;;;;4.05;2.75;;;;;;;27.09;26.88;98506.00;5090189;28;20039;-84
2021/09/28 04:05:53;;;;;;;4.03;3.15;;;;;;;26.32;27.77;98508.78;5090526;28;20059;-83
2021/09/28 04:08:19;;;;;;;4.07;3.15;;;;;;;26.93;27.38;98518.13;5088146;28;20035;-83
2021/09/28 04:10:45;;;;;;;4.90;3.03;;;;;;;27.07;27.17;98517.72;5088855;28;20028;-83
2021/09/28 04:13:11;;;;;;;5.05;2.78;;;;;;;27.27;26.86;98521.19;5089162;28;20055;-84
2021/09/28 04:15:41;;;;;;;3.08;1.85;;;;;;;27.27;26.85;98526.84;5089841;28;20407;-84
2021/09/28 04:18:12;;;;;;;4.03;3.50;;;;;;;26.58;27.62;98528.22;5086799;28;20090;-84
2021/09/28 04:20:43;;;;;;;5.97;3.72;;;;;;;25.20;29.74;98530.47;5086245;28;20081;-84
2021/09/28 04:23:11;;;;;;;6.75;4.95;;;;;;;25.30;29.92;98542.69;5056689;28;20040;-85
2021/09/28 04:25:37;;;;;;;5.43;3.53;;;;;;;25.94;28.76;98536.56;5063038;28;20082;-84
2021/09/28 04:28:04;;;;;;;6.30;4.35;;;;;;;25.91;28.88;98537.44;5090663;28;20032;-82
2021/09/28 04:30:30;;;;;;;4.78;3.58;;;;;;;24.30;31.19;98544.84;5088178;28;20031;-84
2021/09/28 04:32:56;;;;;;;5.55;4.25;;;;;;;25.01;30.05;98530.41;5103105;28;20039;-84
2021/09/28 04:35:22;;;;;;;5.97;4.30;;;;;;;25.21;30.17;98542.47;5074370;28;20399;-84
2021/09/28 04:37:48;;;;;;;6.13;4.07;;;;;;;26.17;28.76;98535.66;5085357;28;22138;-82
2021/09/28 04:40:15;;;;;;;7.43;4.90;;;;;;;24.82;30.61;98536.78;5085296;28;20089;-85
2021/09/28 04:42:41;;;;;;;5.20;3.97;;;;;;;25.41;30.05;98543.28;5088312;28;20028;-83
2021/09/28 04:45:09;;;;;;;6.20;3.70;;;;;;;24.87;30.67;98531.47;5087550;28;20119;-84
2021/09/28 04:47:35;;;;;;;5.38;3.80;;;;;;;24.06;31.63;98541.19;5094026;28;20039;-84
2021/09/28 04:50:02;;;;;;;5.53;3.95;;;;;;;24.16;32.05;98548.66;5094450;28;20028;-83
2021/09/28 04:52:28;;;;;;;6.85;4.10;;;;;;;24.52;31.42;98537.66;5091707;28;20040;-83
2021/09/28 04:54:54;;;;;;;5.68;3.80;;;;;;;24.82;30.94;98546.00;5089968;28;20063;-84
2021/09/28 04:57:21;;;;;;;6.70;3.72;;;;;;;24.87;30.70;98550.34;5080019;28;20431;-83
2021/09/28 04:59:48;;;;;;;5.03;3.67;;;;;;;24.43;31.56;98557.06;5089771;28;20024;-83
2021/09/28 05:02:14;;;;;;;5.10;3.45;;;;;;;24.89;31.09;98561.94;5089681;28;20036;-83
2021/09/28 05:04:41;;;;;;;6.75;4.70;;;;;;;24.95;30.55;98554.63;5093082;28;20035;-83
2021/09/28 05:07:07;;;;;;;6.75;3.97;;;;;;;25.44;30.22;98545.25;5109811;27;20035;-83
2021/09/28 05:09:33;;;;;;;7.53;4.65;;;;;;;24.88;30.78;98552.72;5088366;28;20062;-83
2021/09/28 05:12:00;;;;;;;5.97;4.38;;;;;;;23.99;32.20;98555.31;5092652;28;20032;-82
2021/09/28 05:14:28;;;;;;;6.30;4.10;;;;;;;23.86;32.83;98562.69;5094240;28;20101;-82
2021/09/28 05:16:55;;;;;;;6.20;4.22;;;;;;;23.84;32.78;98563.09;5094030;28;20521;-82
2021/09/28 05:19:21;;;;;;;5.05;4.45;;;;;;;23.27;33.31;98565.75;5097196;28;20028;-82
2021/09/28 05:21:47;;;;;;;5.70;4.07;;;;;;;24.36;31.25;98562.78;5104091;28;20032;-83
2021/09/28 05:24:13;;;;;;;5.35;3.88;;;;;;;24.52;31.22;98574.97;5102239;28;20404;-85
2021/09/28 05:26:39;;;;;;;5.45;4.32;;;;;;;25.19;30.15;98567.41;5086595;28;20038;-83
2021/09/28 05:29:05;;;;;;;6.55;4.68;;;;;;;24.28;31.60;98578.13;5094025;28;20040;-83
2021/09/28 05:31:31;;;;;;;7.55;4.60;;;;;;;23.36;33.05;98582.13;5090880;28;20028;-82
2021/09/28 05:33:57;;;;;;;5.05;4.03;;;;;;;24.24;31.52;98574.59;5094139;28;20059;-83
2021/09/28 05:36:24;;;;;;;5.05;3.83;;;;;;;25.65;29.69;98570.13;5098124;28;20420;-82
2021/09/28 05:38:50;;;;;;;5.72;3.42;;;;;;;25.71;29.40;98574.03;5092625;28;20047;-83
2021/09/28 05:41:16;;;;;;;4.97;3.72;;;;;;;25.69;29.40;98576.50;5093253;28;20028;-83
2021/09/28 05:43:42;;;;;;;4.78;3.30;;;;;;;25.56;29.65;98575.53;5076543;28;20039;-83
2021/09/28 05:46:08;;;;;;;5.85;4.20;;;;;;;25.59;29.72;98571.06;5089995;28;20117;-83
2021/09/28 05:48:34;;;;;;;4.63;3.38;;;;;;;25.65;29.34;98578.56;5095223;28;20387;-83
2021/09/28 05:51:01;;;;;;;4.65;3.08;;;;;;;25.60;29.42;98584.69;5076020;28;20032;-83
2021/09/28 05:53:34;;;;;;;4.95;3.45;;;;;;;25.44;29.49;98581.81;5094961;28;20114;-83
2021/09/28 05:56:00;;;;;;;3.58;2.72;;;;;;;25.95;29.36;98581.16;5076483;28;20090;-83
2021/09/28 05:58:26;;;;;;;3.88;2.75;;;;;;;26.78;28.19;98583.72;5093767;28;20036;-83
2021/09/28 06:00:52;;;;;;;4.72;3.65;;;;;;;25.44;29.39;98581.81;5094113;28;20043;-83
2021/09/28 06:03:19;;;;;;;3.67;3.03;;;;;;;24.40;31.38;98598.00;5110678;28;20028;-83
2021/09/28 06:05:45;;;;;;;3.70;2.83;;;;;;;25.51;30.07;98592.91;5093785;28;20491;-83
2021/09/28 06:08:12;;;;;;;4.25;3.08;;;;;;;25.37;29.91;98602.38;5091903;28;20062;-83
2021/09/28 06:10:38;;;;;;;4.63;3.47;;;;;;;26.68;28.32;98608.88;5082014;28;20032;-83
2021/09/28 06:13:04;;;;;;;2.50;2.15;;;;;;;27.42;27.25;98604.19;5085639;28;20104;-83
2021/09/28 06:15:30;;;;;;;2.75;1.95;;;;;;;28.33;26.22;98602.00;5091267;28;20028;-83
2021/09/28 06:17:57;;;;;;;3.22;2.28;;;;;;;28.68;25.71;98596.00;5092097;28;20035;-83
2021/09/28 06:20:23;;;;;;;3.20;2.45;;;;;;;28.75;25.51;98609.16;5093352;28;20082;-83
2021/09/28 06:22:49;;;;;;;2.95;2.08;;;;;;;29.16;24.86;98611.78;5101892;28;20044;-83
2021/09/28 06:25:15;;;;;;;3.78;2.67;;;;;;;29.16;24.56;98623.09;5094648;28;20389;-84
2021/09/28 06:27:41;;;;;;;3.80;3.13;;;;;;;27.98;25.59;98623.59;5092352;28;20028;-84
2021/09/28 06:30:08;;;;;;;3.90;3.17;;;;;;;26.91;27.68;98619.19;5080765;28;20064;-83
2021/09/28 06:32:34;;;;;;;5.07;4.05;;;;;;;27.15;27.76;98622.63;5093561;28;20028;-84
2021/09/28 06:35:00;;;;;;;3.30;2.30;;;;;;;26.89;27.88;98629.31;5094153;28;20047;-84
2021/09/28 06:37:26;;;;;;;5.93;3.92;;;;;;;25.22;30.16;98625.56;5074782;28;20395;-83
2021/09/28 06:39:52;;;;;;;5.47;3.60;;;;;;;24.62;31.43;98635.75;5061054;28;20064;-84
2021/09/28 06:42:18;;;;;;;6.03;3.90;;;;;;;24.62;31.89;98640.59;5093431;28;20028;-83
2021/09/28 06:44:44;;;;;;;6.15;4.68;;;;;;;22.95;34.26;98640.09;5093631;28;20047;-83
2021/09/28 06:47:10;;;;;;;7.32;5.22;;;;;;;23.31;34.12;98638.59;5090409;28;20036;-83
2021/09/28 06:49:36;;;;;;;8.23;4.85;;;;;;;24.77;31.80;98641.19;5094367;28;20064;-83
2021/09/28 06:52:03;;;;;;;6.20;3.55;;;;;;;26.57;28.95;98628.03;5088193;28;20040;-83
2021/09/28 06:54:29;;;;;;;6.80;4.38;;;;;;;26.36;28.88;98628.53;5093063;28;20043;-83
2021/09/28 06:56:55;;;;;;;5.55;3.63;;;;;;;26.81;28.57;98631.53;5094287;28;20032;-83
2021/09/28 06:59:21;;;;;;;9.30;4.85;;;;;;;26.43;28.54;98630.38;5093455;28;20039;-83
2021/09/28 07:01:47;;;;;;;4.97;3.25;;;;;;;27.33;27.84;98637.03;5093373;28;20038;-84
2021/09/28 07:04:13;;;;;;;6.43;3.40;;;;;;;26.77;28.27;98642.09;5093155;28;20119;-84
2021/09/28 07:06:39;;;;;;;6.65;3.83;;;;;;;26.65;28.33;98648.41;5073682;28;20107;-84
2021/09/28 07:09:05;;;;;;;6.00;3.05;;;;;;;27.32;28.22;98638.28;5092731;28;20039;-83
2021/09/28 07:11:31;;;;;;;5.70;3.45;;;;;;;27.08;27.72;98643.34;5093990;28;20046;-84
2021/09/28 07:13:57;;;;;;;5.75;3.67;;;;;;;26.06;29.35;98652.09;5090631;28;20058;-84
2021/09/28 07:16:23;;;;;;;8.68;4.75;;;;;;;25.81;29.68;98657.41;5093310;28;20035;-83
2021/09/28 07:18:49;;;;;;;5.22;3.70;;;;;;;23.96;32.36;98659.91;5092760;28;20109;-83
2021/09/28 07:21:15;;;;;;;6.63;4.32;;;;;;;23.95;32.93;98663.91;5093833;28;20042;-84
2021/09/28 07:23:42;;;;;;;5.28;4.05;;;;;;;24.20;32.91;98660.84;5089572;28;20583;-84
2021/09/28 07:26:08;;;;;;;5.90;3.97;;;;;;;24.45;32.33;98670.53;5093263;28;20032;-84
2021/09/28 07:28:36;;;;;;;6.90;5.05;;;;;;;23.61;33.38;98674.34;5081622;28;20438;-83
2021/09/28 07:31:04;;;;;;;6.22;3.90;;;;;;;23.59;33.86;98669.16;5092289;28;20028;-83
2021/09/28 07:33:32;;;;;;;8.52;4.30;;;;;;;23.49;34.36;98672.06;5093471;28;20057;-84
2021/09/28 07:35:58;;;;;;;10.00;5.60;;;;;;;23.64;33.90;98670.72;5092098;28;20035;-83
2021/09/28 07:38:24;;;;;;;12.38;5.85;;;;;;;24.19;33.47;98679.69;5092554;28;20040;-83
2021/09/28 07:40:51;;;;;;;10.30;3.88;;;;;;;25.53;30.71;98671.22;5093335;28;20031;-84
2021/09/28 07:43:18;;;;;;;6.60;3.45;;;;;;;26.17;30.24;98674.41;5091739;28;20047;-84
2021/09/28 07:45:45;;;;;;;5.85;3.30;;;;;;;27.64;28.53;98671.31;5084010;28;20028;-84
2021/09/28 07:48:11;;;;;;;3.65;2.70;;;;;;;28.43;27.23;98677.91;5091881;28;20129;-84
2021/09/28 07:50:38;;;;;;;3.15;2.85;;;;;;;28.74;26.39;98690.31;5092207;28;20063;-84
2021/09/28 07:53:06;;;;;;;4.10;2.60;;;;;;;29.30;25.64;98684.09;5093368;28;20062;-84
2021/09/28 07:55:33;;;;;;;4.18;3.25;;;;;;;29.02;25.79;98680.13;5089800;28;20125;-84
2021/09/28 07:57:59;;;;;;;4.68;2.95;;;;;;;27.54;27.56;98687.28;5092582;28;20060;-84
2021/09/28 08:00:25;;;;;;;3.38;2.83;;;;;;;26.53;28.90;98685.69;5092667;28;20032;-84
2021/09/28 08:02:51;;;;;;;4.00;2.97;;;;;;;27.00;28.42;98686.25;5061969;28;20400;-84
2021/09/28 08:05:17;;;;;;;4.43;2.17;;;;;;;27.49;27.96;98687.84;5092980;28;20407;-84
2021/09/28 08:07:43;;;;;;;4.40;2.88;;;;;;;28.17;26.98;98684.75;5073770;28;20039;-83
2021/09/28 08:10:11;;;;;;;2.70;2.50;;;;;;;28.96;26.77;98698.13;5082609;28;20468;-83
2021/09/28 08:12:38;;;;;;;4.35;3.53;;;;;;;27.16;28.00;98694.69;5098731;28;20115;-84
2021/09/28 08:15:06;;;;;;;5.95;3.75;;;;;;;27.49;28.15;98696.31;5093315;28;20545;-83
2021/09/28 08:17:32;;;;;;;3.78;2.80;;;;;;;27.97;27.30;98696.19;5091733;28;20491;-83
2021/09/28 08:19:58;;;;;;;4.78;3.28;;;;;;;28.91;26.27;98698.69;5092909;28;20031;-83
2021/09/28 08:22:24;;;;;;;4.32;2.95;;;;;;;27.80;27.18;98697.47;5091515;28;20036;-83
2021/09/28 08:24:54;;;;;;;4.03;3.17;;;;;;;27.47;28.42;98698.75;5092823;28;20044;-83
2021/09/28 08:30:08;;;;;;;3.88;3.35;;;;;;;27.14;28.39;98706.41;5092519;28;20514;-83
2021/09/28 08:32:34;;;;;;;4.57;3.13;;;;;;;26.81;29.15;98699.16;5092304;28;20028;-84
2021/09/28 08:35:01;;;;;;;5.28;3.70;;;;;;;26.96;28.90;98702.41;5091869;28;20058;-83
2021/09/28 08:37:28;;;;;;;4.30;3.28;;;;;;;27.74;28.57;98698.44;5073518;28;20028;-83
2021/09/28 08:39:55;;;;;;;4.35;3.63;;;;;;;28.06;27.77;98704.03;5090317;28;20073;-84
2021/09/28 08:42:23;;;;;;;6.95;3.40;;;;;;;28.41;27.53;98696.56;5096045;28;20061;-83
2021/09/28 08:44:49;;;;;;;6.05;3.25;;;;;;;28.17;27.80;98701.69;5096093;28;20074;-84
2021/09/28 08:47:16;;;;;;;6.25;3.55;;;;;;;25.78;30.11;98706.09;5093826;28;20036;-83
2021/09/28 08:49:42;;;;;;;4.60;3.80;;;;;;;25.09;31.74;98712.50;5094458;28;20096;-83
2021/09/28 08:52:10;;;;;;;5.72;4.15;;;;;;;26.17;30.29;98705.34;5093589;28;20104;-84
2021/09/28 08:54:36;;;;;;;6.63;3.75;;;;;;;27.15;29.07;98708.00;5094510;28;20051;-84
2021/09/28 08:57:02;;;;;;;8.80;5.03;;;;;;;25.04;32.08;98712.19;5075175;28;20033;-83
2021/09/28 08:59:49;;;;;;;7.25;4.95;;;;;;;27.25;28.30;98709.75;5076000;28;20078;-83
2021/09/28 09:02:15;;;;;;;8.00;5.00;;;;;;;26.83;29.46;98710.78;5072779;28;20044;-83
2021/09/28 09:04:44;;;;;;;11.73;6.53;;;;;;;24.77;32.34;98725.44;5059505;28;20028;-83
2021/09/28 09:07:25;;;;;;;7.13;5.10;;;;;;;24.45;34.06;98723.06;5091083;28;20036;-83
2021/09/28 09:09:52;;;;;;;9.30;4.57;;;;;;;27.11;30.32;98714.94;5075393;28;20476;-84
2021/09/28 09:12:31;;;;;;;7.70;5.82;;;;;;;28.54;27.10;98720.75;5074982;28;20044;-84
2021/09/28 09:15:20;;;;;;;7.38;4.13;;;;;;;28.91;26.54;98719.28;5074754;28;20036;-84
2021/09/28 09:17:48;;;;;;;6.13;4.43;;;;;;;26.37;29.70;98731.47;5055791;28;20033;-83
2021/09/28 09:20:29;;;;;;;6.60;4.95;;;;;;;26.55;29.37;98729.09;5058819;28;20511;-84
2021/09/28 09:23:11;;;;;;;;;;;;;;;26.62;29.93;98728.94;5074881;28;20097;-84
2021/09/28 09:25:38;;;;;;;9.00;3.55;;;;;;;29.02;27.81;98724.56;5069467;28;19923;-83
2021/09/28 09:28:19;;;;;;;9.23;4.35;;;;;;;29.37;26.58;98723.44;5073061;28;20047;-83
2021/09/28 09:30:45;;;;;;;4.68;4.13;;;;;;;29.29;26.41;98724.94;5070977;28;20488;-83
2021/09/28 09:33:11;;;;;;;6.78;4.55;;;;;;;27.79;27.69;98723.31;5071492;28;20494;-84
2021/09/28 09:35:37;;;;;;;5.00;3.95;;;;;;;27.32;28.25;98725.72;5068148;28;20506;-84
2021/09/28 09:38:08;;;;;;;7.97;4.90;;;;;;;26.78;29.37;98721.78;5073394;28;20037;-82
2021/09/28 09:40:37;;;;;;;7.15;5.70;;;;;;;24.91;32.02;98728.03;5074425;28;20025;-84
2021/09/28 09:43:04;;;;;;;10.90;5.10;;;;;;;24.40;33.28;98729.94;5073162;28;20036;-84
2021/09/28 09:45:31;;;;;;;7.25;4.82;;;;;;;26.25;30.38;98717.28;5072623;28;20025;-84
2021/09/28 09:47:57;;;;;;;5.05;4.00;;;;;;;27.16;29.50;98718.06;5067915;28;20471;-84
2021/09/28 09:50:26;;;;;;;10.65;5.65;;;;;;;25.62;31.06;98722.09;5068497;28;20025;-84
2021/09/28 09:52:58;;;;;;;3.92;3.53;;;;;;;27.77;28.70;98718.09;5072436;28;20040;-85
2021/09/28 09:55:28;;;;;;;7.32;4.75;;;;;;;26.00;31.55;98724.16;5076751;28;20044;-84
2021/09/28 09:57:55;;;;;;;8.67;5.07;;;;;;;26.55;30.42;98722.66;5088416;28;20112;-84
2021/09/28 10:00:22;;;;;;;7.80;5.20;;;;;;;26.26;30.30;98724.47;5068442;28;20294;-86
2021/09/28 10:02:49;;;;;;;6.65;4.55;;;;;;;26.44;30.92;98722.09;5102936;28;20036;-85
2021/09/28 10:05:16;;;;;;;7.72;5.35;;;;;;;25.68;31.53;98726.78;5083346;28;20037;-84
2021/09/28 10:07:42;;;;;;;7.70;3.90;;;;;;;26.55;30.14;98723.47;5085976;28;20032;-84
2021/09/28 10:10:17;;;;;;;7.82;4.40;;;;;;;25.73;31.29;98722.69;5083589;28;20036;-84
2021/09/28 10:12:43;;;;;;;5.97;3.92;;;;;;;26.13;31.79;98729.19;5087653;28;20460;-84
2021/09/28 10:15:16;;;;;;;7.32;4.95;;;;;;;25.78;32.04;98733.44;5084476;28;20131;-85
2021/09/28 10:17:44;;;;;;;6.70;4.45;;;;;;;28.59;27.65;98727.94;5067593;28;20032;-84
2021/09/28 10:20:24;;;;;;;7.47;3.58;;;;;;;29.92;26.17;98733.31;5081969;28;20127;-84
2021/09/28 10:22:57;;;;;;;8.32;5.32;;;;;;;28.80;26.15;98732.94;5080608;28;20089;-85
2021/09/28 10:25:37;;;;;;;8.85;5.20;;;;;;;28.42;27.51;98734.88;5083181;28;20024;-85
2021/09/28 10:28:06;;;;;;;5.90;3.80;;;;;;;29.67;27.06;98739.00;5091126;28;20028;-84
2021/09/28 10:30:35;;;;;;;6.90;4.38;;;;;;;29.43;25.93;98747.88;5086533;28;20038;-85
2021/09/28 10:33:02;;;;;;;11.15;5.55;;;;;;;26.86;29.30;98742.94;5090535;28;20072;-84
2021/09/28 10:35:30;;;;;;;6.78;5.00;;;;;;;26.85;29.66;98746.97;5075501;28;20025;-84
2021/09/28 10:38:03;;;;;;;5.47;3.92;;;;;;;29.15;28.16;98742.34;5065270;28;20050;-84
2021/09/28 10:40:32;;;;;;;5.40;4.05;;;;;;;29.62;27.01;98748.88;5107661;28;20035;-85
2021/09/28 10:43:23;;;;;;;8.27;5.43;;;;;;;28.46;27.59;98738.38;5104569;28;20066;-84
2021/09/28 10:45:49;;;;;;;9.23;4.40;;;;;;;28.54;28.71;98745.41;5094479;28;20472;-85
2021/09/28 10:48:27;;;;;;;7.53;4.75;;;;;;;27.79;29.13;98738.22;5094425;28;20075;-84
2021/09/28 10:51:20;;;;;;;11.10;5.63;;;;;;;28.54;28.21;98740.53;5080625;28;20058;-85
2021/09/28 10:53:51;;;;;;;7.82;4.68;;;;;;;28.45;28.12;98740.41;5089590;28;20043;-86
2021/09/28 10:56:18;;;;;;;;;;;;;;;28.12;28.32;98732.53;5088185;28;20032;-86
2021/09/28 10:59:02;;;;;;;10.32;5.97;;;;;;;26.92;29.74;98738.34;5089891;28;19923;-86
2021/09/28 11:01:33;;;;;;;9.68;5.60;;;;;;;27.08;29.93;98741.19;5091639;28;20107;-87
2021/09/28 11:04:00;;;;;;;;;;;;;;;28.45;28.55;98734.75;5094187;28;20035;-86
2021/09/28 11:06:48;;;;;;;11.60;5.45;;;;;;;29.32;26.46;98741.00;5092797;28;19916;-86
2021/09/28 11:09:16;;;;;;;9.93;5.82;;;;;;;29.13;27.55;98742.78;5086656;28;20028;-86
2021/09/28 11:11:45;;;;;;;7.60;4.55;;;;;;;28.95;26.88;98745.38;5087741;28;20060;-86
2021/09/28 11:14:11;;;;;;;8.13;5.63;;;;;;;29.20;26.55;98738.97;5085376;28;20023;-87
2021/09/28 11:16:43;;;;;;;7.43;5.07;;;;;;;29.15;26.71;98743.13;5069369;28;20124;-87
2021/09/28 11:19:10;;;;;;;5.90;5.20;;;;;;;29.76;25.16;98742.75;5090272;28;20064;-87
2021/09/28 11:21:41;;;;;;;8.65;4.95;;;;;;;28.85;26.64;98742.88;5088391;28;20063;-86
2021/09/28 11:24:07;;;;;;;8.68;5.55;;;;;;;28.45;27.29;98737.59;5091028;28;20078;-86
2021/09/28 11:26:38;;;;;;;7.55;5.03;;;;;;;28.70;27.20;98742.53;5085748;28;20040;-88
2021/09/28 11:29:05;;;;;;;6.22;4.78;;;;;;;29.57;26.19;98740.19;5089402;28;20032;-87
2021/09/28 11:31:37;;;;;;;8.18;5.63;;;;;;;28.65;27.28;98735.41;5081915;28;20090;-87
2021/09/28 11:34:04;;;;;;;6.95;5.93;;;;;;;27.97;27.77;98732.09;5083246;28;20035;-87
2021/09/28 11:36:36;;;;;;;7.45;5.45;;;;;;;28.96;26.27;98734.88;5083457;28;20485;-87
2021/09/28 11:39:05;;;;;;;9.48;5.30;;;;;;;29.64;26.66;98737.88;5085645;28;20089;-87